Time;durP1;ratioP1;P1;durP2;ratioP2;P2;SDS_P1;SDS_P2;PMS_P1;PMS_P2;Temp;Humidity;BMP_temperature;BMP_pressure;BME280_temperature;BME280_humidity;BME280_pressure;Samples;Min_cycle;Max_cycle;Signal;HPM_P1;HPM_P2
2022/07/01 00:00:13;;;;;;;;;;;;;;;;;;4976864;28;8354;-82
2022/07/01 00:02:39;;;;;;;;;;;;;;;;;;4977034;28;6967;-83
2022/07/01 00:05:05;;;;;;;;;;;;;;;;;;4977503;28;8381;-83
2022/07/01 00:07:30;;;;;;;;;;;;;;;;;;4976820;28;8447;-84
2022/07/01 00:09:56;;;;;;;;;;;;;;;;;;4976915;28;7153;-84
2022/07/01 00:12:21;;;;;;;;;;;;;;;;;;4976731;28;8501;-84
2022/07/01 00:14:47;;;;;;;;;;;;;;;;;;4976488;28;7047;-84
2022/07/01 00:17:12;;;;;;;;;;;;;;;;;;4976505;28;7122;-84
2022/07/01 00:19:38;;;;;;;;;;;;;;;;;;4977625;28;7143;-84
2022/07/01 00:22:03;;;;;;;;;;;;;;;;;;4976144;28;7150;-84
2022/07/01 00:24:29;;;;;;;;;;;;;;;;;;4975925;28;7162;-84
2022/07/01 00:26:54;;;;;;;;;;;;;;;;;;4976889;28;8703;-84
2022/07/01 00:29:20;;;;;;;;;;;;;;;;;;4976025;28;7327;-84
2022/07/01 00:31:45;;;;;;;;;;;;;;;;;;4976169;28;7141;-84
2022/07/01 00:34:11;;;;;;;;;;;;;;;;;;4976212;28;7235;-83
2022/07/01 00:36:37;;;;;;;;;;;;;;;;;;4976994;28;7136;-84
2022/07/01 00:39:02;;;;;;;;;;;;;;;;;;4976268;28;9313;-84
2022/07/01 00:41:28;;;;;;;;;;;;;;;;;;4976341;28;8422;-84
2022/07/01 00:43:53;;;;;;;;;;;;;;;;;;4976142;28;9542;-85
2022/07/01 00:46:19;;;;;;;;;;;;;;;;;;4976353;28;8433;-83
2022/07/01 00:48:45;;;;;;;;;;;;;;;;;;4976030;28;8713;-84
2022/07/01 00:51:11;;;;;;;;;;;;;;;;;;4976052;28;7060;-83
2022/07/01 00:53:37;;;;;;;;;;;;;;;;;;4975813;28;7164;-83
2022/07/01 00:56:03;;;;;;;;;;;;;;;;;;4976023;28;7227;-84
2022/07/01 00:58:29;;;;;;;;;;;;;;;;;;4975705;28;8417;-83
2022/07/01 01:00:59;;;;;;;;;;;;;;;;;;4976015;28;8411;-83
2022/07/01 01:03:24;;;;;;;;;;;;;;;;;;4975941;28;6989;-84
2022/07/01 01:05:52;;;;;;;;;;;;;;;;;;4975765;28;8417;-82
2022/07/01 01:08:18;;;;;;;;;;;;;;;;;;4975383;28;7049;-84
2022/07/01 01:10:44;;;;;;;;;;;;;;;;;;4975973;28;8420;-83
2022/07/01 01:13:09;;;;;;;;;;;;;;;;;;4975819;28;8747;-83
2022/07/01 01:15:37;;;;;;;;;;;;;;;;;;4975287;28;8479;-84
2022/07/01 01:18:02;;;;;;;;;;;;;;;;;;4975496;28;7068;-83
2022/07/01 01:20:35;;;;;;;;;;;;;;;;;;4975465;28;8302;-84
2022/07/01 01:23:02;;;;;;;;;;;;;;;;;;4975184;28;7252;-83
2022/07/01 01:25:27;;;;;;;;;;;;;;;;;;4975319;28;7433;-83
2022/07/01 01:27:53;;;;;;;;;;;;;;;;;;4975327;28;8467;-85
2022/07/01 01:30:18;;;;;;;;;;;;;;;;;;4975231;28;8772;-84
2022/07/01 01:32:44;;;;;;;;;;;;;;;;;;4975173;28;8541;-86
2022/07/01 01:35:10;;;;;;;;;;;;;;;;;;4974785;28;8418;-84
2022/07/01 01:37:35;;;;;;;;;;;;;;;;;;4974896;28;8628;-83
2022/07/01 01:40:01;;;;;;;;;;;;;;;;;;4975230;28;8436;-84
2022/07/01 01:42:27;;;;;;;;;;;;;;;;;;4975100;28;8806;-84
2022/07/01 01:44:54;;;;;;;;;;;;;;;;;;4975562;28;8466;-84
2022/07/01 01:47:19;;;;;;;;;;;;;;;;;;4975608;28;7070;-84
2022/07/01 01:49:45;;;;;;;;;;;;;;;;;;4975177;28;7032;-84
2022/07/01 01:52:10;;;;;;;;;;;;;;;;;;4975124;28;7036;-83
2022/07/01 01:54:36;;;;;;;;;;;;;;;;;;4975104;28;8726;-84
2022/07/01 01:57:03;;;;;;;;;;;;;;;;;;4975493;28;8318;-83
2022/07/01 01:59:28;;;;;;;;;;;;;;;;;;4974698;28;8352;-84
2022/07/01 02:01:54;;;;;;;;;;;;;;;;;;4974759;28;7157;-83
2022/07/01 02:04:20;;;;;;;;;;;;;;;;;;4974896;28;7093;-86
2022/07/01 02:06:46;;;;;;;;;;;;;;;;;;4975270;28;8769;-83
2022/07/01 02:09:13;;;;;;;;;;;;;;;;;;4975048;28;8871;-83
2022/07/01 02:11:38;;;;;;;;;;;;;;;;;;4974816;28;8425;-82
2022/07/01 02:14:04;;;;;;;;;;;;;;;;;;4974905;28;8590;-83
2022/07/01 02:16:30;;;;;;;;;;;;;;;;;;4974932;28;8546;-84
2022/07/01 02:18:55;;;;;;;;;;;;;;;;;;4974442;28;8408;-82
2022/07/01 02:21:21;;;;;;;;;;;;;;;;;;4974568;28;7161;-83
2022/07/01 02:23:47;;;;;;;;;;;;;;;;;;4974882;28;8579;-84
2022/07/01 02:26:12;;;;;;;;;;;;;;;;;;4974479;28;8468;-84
2022/07/01 02:28:38;;;;;;;;;;;;;;;;;;4974746;28;7312;-84
2022/07/01 02:31:03;;;;;;;;;;;;;;;;;;4974746;28;7172;-84
2022/07/01 02:33:29;;;;;;;;;;;;;;;;;;4974383;28;7354;-83
2022/07/01 02:35:55;;;;;;;;;;;;;;;;;;4974428;28;8513;-84
2022/07/01 02:38:21;;;;;;;;;;;;;;;;;;4974650;28;7129;-83
2022/07/01 02:40:47;;;;;;;;;;;;;;;;;;4974732;28;8425;-84
2022/07/01 02:43:13;;;;;;;;;;;;;;;;;;4974683;28;7020;-83
2022/07/01 02:45:39;;;;;;;;;;;;;;;;;;4974794;28;7179;-84
2022/07/01 02:48:05;;;;;;;;;;;;;;;;;;4978275;28;7160;-84
2022/07/01 02:50:31;;;;;;;;;;;;;;;;;;4978090;28;8452;-84
2022/07/01 02:52:56;;;;;;;;;;;;;;;;;;4978164;28;8800;-83
2022/07/01 02:55:22;;;;;;;;;;;;;;;;;;4978542;28;7233;-83
2022/07/01 02:57:51;;;;;;;;;;;;;;;;;;4978037;28;8704;-83
2022/07/01 03:00:19;;;;;;;;;;;;;;;;;;4977770;28;7266;-84
2022/07/01 03:02:44;;;;;;;;;;;;;;;;;;4978231;28;8405;-83
2022/07/01 03:05:10;;;;;;;;;;;;;;;;;;4978391;28;8497;-84
2022/07/01 03:07:37;;;;;;;;;;;;;;;;;;4978320;28;8602;-84
2022/07/01 03:10:03;;;;;;;;;;;;;;;;;;4978009;28;7392;-83
2022/07/01 03:12:29;;;;;;;;;;;;;;;;;;4978517;28;8069;-83
2022/07/01 03:14:56;;;;;;;;;;;;;;;;;;4977625;28;7424;-83
2022/07/01 03:17:23;;;;;;;;;;;;;;;;;;4977643;28;8417;-83
2022/07/01 03:19:49;;;;;;;;;;;;;;;;;;4977932;28;8443;-84
2022/07/01 03:22:14;;;;;;;;;;;;;;;;;;4977497;28;8494;-83
2022/07/01 03:24:40;;;;;;;;;;;;;;;;;;4977992;28;7508;-84
2022/07/01 03:27:06;;;;;;;;;;;;;;;;;;4977807;28;7318;-83
2022/07/01 03:29:31;;;;;;;;;;;;;;;;;;4977745;28;8410;-83
2022/07/01 03:31:57;;;;;;;;;;;;;;;;;;4978035;28;7419;-83
2022/07/01 03:34:22;;;;;;;;;;;;;;;;;;4976969;28;8706;-85
2022/07/01 03:36:48;;;;;;;;;;;;;;;;;;4977114;28;7320;-84
2022/07/01 03:39:14;;;;;;;;;;;;;;;;;;4977260;28;7171;-83
2022/07/01 03:41:39;;;;;;;;;;;;;;;;;;4977194;28;8423;-83
2022/07/01 03:44:05;;;;;;;;;;;;;;;;;;4977178;28;8475;-83
2022/07/01 03:46:32;;;;;;;;;;;;;;;;;;4977268;28;7673;-84
2022/07/01 03:49:01;;;;;;;;;;;;;;;;;;4977402;28;8444;-83
2022/07/01 03:51:26;;;;;;;;;;;;;;;;;;4977564;28;8417;-83
2022/07/01 03:56:36;;;;;;;;;;;;;;;;;;4978512;28;6799;-83
2022/07/01 03:59:02;;;;;;;;;;;;;;;;;;4976830;28;8476;-83
2022/07/01 04:01:27;;;;;;;;;;;;;;;;;;4978076;28;7044;-84
2022/07/01 04:03:53;;;;;;;;;;;;;;;;;;4976758;28;7019;-83
2022/07/01 04:06:19;;;;;;;;;;;;;;;;;;4977203;28;8375;-83
2022/07/01 04:08:47;;;;;;;;;;;;;;;;;;4977025;28;8372;-83
2022/07/01 04:11:12;;;;;;;;;;;;;;;;;;4976969;28;8587;-84
2022/07/01 04:13:38;;;;;;;;;;;;;;;;;;4977131;28;7276;-84
2022/07/01 04:16:04;;;;;;;;;;;;;;;;;;4972710;28;7008;-84
2022/07/01 04:18:30;;;;;;;;;;;;;;;;;;4975505;28;8427;-83
2022/07/01 04:23:40;;;;;;;;;;;;;;;;;;4976187;28;6806;-83
2022/07/01 04:26:06;;;;;;;;;;;;;;;;;;4975823;28;7189;-79
2022/07/01 04:28:31;;;;;;;;;;;;;;;;;;4974335;28;8665;-79
2022/07/01 04:30:57;;;;;;;;;;;;;;;;;;4975281;28;7114;-81
2022/07/01 04:33:22;;;;;;;;;;;;;;;;;;4975493;28;8306;-79
2022/07/01 04:35:48;;;;;;;;;;;;;;;;;;4975559;28;6830;-83
2022/07/01 04:38:13;;;;;;;;;;;;;;;;;;4975243;28;8469;-83
2022/07/01 04:40:39;;;;;;;;;;;;;;;;;;4975174;28;7139;-82
2022/07/01 04:43:04;;;;;;;;;;;;;;;;;;4975174;28;8963;-79
2022/07/01 04:45:30;;;;;;;;;;;;;;;;;;4975084;28;8581;-84
2022/07/01 04:47:56;;;;;;;;;;;;;;;;;;4975069;28;8843;-79
2022/07/01 04:50:21;;;;;;;;;;;;;;;;;;4974610;28;8671;-79
2022/07/01 04:52:46;;;;;;;;;;;;;;;;;;4974893;28;8488;-82
2022/07/01 04:55:12;;;;;;;;;;;;;;;;;;4974866;28;7336;-79
2022/07/01 04:57:37;;;;;;;;;;;;;;;;;;4975256;28;7036;-79
2022/07/01 05:00:03;;;;;;;;;;;;;;;;;;4973967;28;7471;-78
2022/07/01 05:02:28;;;;;;;;;;;;;;;;;;4975037;28;8597;-79
2022/07/01 05:04:54;;;;;;;;;;;;;;;;;;4975200;28;7226;-81
2022/07/01 05:07:28;;;;;;;;;;;;;;;;;;4975383;28;8713;-81
2022/07/01 05:09:54;;;;;;;;;;;;;;;;;;4974581;28;8545;-85
2022/07/01 05:12:20;;;;;;;;;;;;;;;;;;4975024;28;8363;-83
2022/07/01 05:14:46;;;;;;;;;;;;;;;;;;4975507;28;8751;-82
2022/07/01 05:17:11;;;;;;;;;;;;;;;;;;4987476;28;9662;-83
2022/07/01 05:22:21;;;;;;;;;;;;;;;;;;4994389;28;6799;-82
2022/07/01 05:24:46;;;;;;;;;;;;;;;;;;4995978;28;7029;-84
2022/07/01 05:27:12;;;;;;;;;;;;;;;;;;4994882;28;8405;-82
2022/07/01 05:29:37;;;;;;;;;;;;;;;;;;4994887;28;8449;-84
2022/07/01 05:32:03;;;;;;;;;;;;;;;;;;4995206;28;7208;-84
2022/07/01 05:34:28;;;;;;;;;;;;;;;;;;4994306;28;7209;-84
2022/07/01 05:36:54;;;;;;;;;;;;;;;;;;4978343;28;7068;-84
2022/07/01 05:39:20;;;;;;;;;;;;;;;;;;4974179;28;8729;-83
2022/07/01 05:41:45;;;;;;;;;;;;;;;;;;4973958;28;8761;-84
2022/07/01 05:44:11;;;;;;;;;;;;;;;;;;4973901;28;7072;-83
2022/07/01 05:46:36;;;;;;;;;;;;;;;;;;4974098;28;8643;-84
2022/07/01 05:49:02;;;;;;;;;;;;;;;;;;4974006;28;7412;-82
2022/07/01 05:51:28;;;;;;;;;;;;;;;;;;4973672;28;9479;-83
2022/07/01 05:53:55;;;;;;;;;;;;;;;;;;4973533;28;7180;-84
2022/07/01 05:56:21;;;;;;;;;;;;;;;;;;4973464;28;7182;-85
2022/07/01 05:58:47;;;;;;;;;;;;;;;;;;4973484;28;8460;-84
2022/07/01 06:01:13;;;;;;;;;;;;;;;;;;4974107;28;7391;-84
2022/07/01 06:03:38;;;;;;;;;;;;;;;;;;4974250;28;7290;-84
2022/07/01 06:06:04;;;;;;;;;;;;;;;;;;4974344;28;7182;-83
2022/07/01 06:08:30;;;;;;;;;;;;;;;;;;4974772;28;8450;-84
2022/07/01 06:10:55;;;;;;;;;;;;;;;;;;4973778;28;8524;-84
2022/07/01 06:13:21;;;;;;;;;;;;;;;;;;4974556;28;7029;-84
2022/07/01 06:15:46;;;;;;;;;;;;;;;;;;4974992;28;8309;-84
2022/07/01 06:18:13;;;;;;;;;;;;;;;;;;4975433;28;7325;-84
2022/07/01 06:20:38;;;;;;;;;;;;;;;;;;4974964;28;8416;-84
2022/07/01 06:23:04;;;;;;;;;;;;;;;;;;4978778;28;8459;-84
2022/07/01 06:25:30;;;;;;;;;;;;;;;;;;4978599;28;7362;-83
2022/07/01 06:27:56;;;;;;;;;;;;;;;;;;4978431;28;6985;-82
2022/07/01 06:30:21;;;;;;;;;;;;;;;;;;4978604;28;8712;-84
2022/07/01 06:32:47;;;;;;;;;;;;;;;;;;4978266;28;8347;-84
2022/07/01 06:35:13;;;;;;;;;;;;;;;;;;4978419;28;8435;-83
2022/07/01 06:37:38;;;;;;;;;;;;;;;;;;4978507;28;8696;-84
2022/07/01 06:40:05;;;;;;;;;;;;;;;;;;4978633;28;8372;-84
2022/07/01 06:42:31;;;;;;;;;;;;;;;;;;4978559;28;8464;-84
2022/07/01 06:44:56;;;;;;;;;;;;;;;;;;4978133;28;7023;-83
2022/07/01 06:47:22;;;;;;;;;;;;;;;;;;4977933;28;7343;-83
2022/07/01 06:49:48;;;;;;;;;;;;;;;;;;4978310;28;8536;-84
2022/07/01 06:52:13;;;;;;;;;;;;;;;;;;4977955;28;9381;-84
2022/07/01 06:54:39;;;;;;;;;;;;;;;;;;4979518;28;7136;-85
2022/07/01 06:57:06;;;;;;;;;;;;;;;;;;4977839;28;7146;-84
2022/07/01 06:59:32;;;;;;;;;;;;;;;;;;4978076;28;8407;-83
2022/07/01 07:01:58;;;;;;;;;;;;;;;;;;4978541;28;8390;-84
2022/07/01 07:04:24;;;;;;;;;;;;;;;;;;4978077;28;8525;-83
2022/07/01 07:06:49;;;;;;;;;;;;;;;;;;4977759;28;8408;-86
2022/07/01 07:09:15;;;;;;;;;;;;;;;;;;4975486;28;7269;-83
2022/07/01 07:11:40;;;;;;;;;;;;;;;;;;4974866;28;7190;-84
2022/07/01 07:14:06;;;;;;;;;;;;;;;;;;4974842;28;8636;-84
2022/07/01 07:16:32;;;;;;;;;;;;;;;;;;4974507;28;7226;-81
2022/07/01 07:18:58;;;;;;;;;;;;;;;;;;4974131;28;8386;-81
2022/07/01 07:21:23;;;;;;;;;;;;;;;;;;4974174;28;8392;-81
2022/07/01 07:23:49;;;;;;;;;;;;;;;;;;4974463;28;8454;-81
2022/07/01 07:26:14;;;;;;;;;;;;;;;;;;4974257;28;8459;-81
2022/07/01 07:28:40;;;;;;;;;;;;;;;;;;4974222;28;8586;-81
2022/07/01 07:31:06;;;;;;;;;;;;;;;;;;4974338;28;8569;-81
2022/07/01 07:33:31;;;;;;;;;;;;;;;;;;4973582;28;7346;-80
2022/07/01 07:35:57;;;;;;;;;;;;;;;;;;4974119;28;7154;-81
2022/07/01 07:38:22;;;;;;;;;;;;;;;;;;4974108;28;8456;-81
2022/07/01 07:40:48;;;;;;;;;;;;;;;;;;4974350;28;8476;-81
2022/07/01 07:43:13;;;;;;;;;;;;;;;;;;4974491;28;7005;-80
2022/07/01 07:45:39;;;;;;;;;;;;;;;;;;4974546;28;8410;-81
2022/07/01 07:48:06;;;;;;;;;;;;;;;;;;4974279;28;8366;-81
2022/07/01 07:50:32;;;;;;;;;;;;;;;;;;4973986;28;7039;-81
2022/07/01 07:52:57;;;;;;;;;;;;;;;;;;4973819;28;7126;-81
2022/07/01 07:55:23;;;;;;;;;;;;;;;;;;4973742;28;8420;-81
2022/07/01 07:57:48;;;;;;;;;;;;;;;;;;4973894;28;8408;-83
2022/07/01 08:00:14;;;;;;;;;;;;;;;;;;4973512;28;7481;-83
2022/07/01 08:02:41;;;;;;;;;;;;;;;;;;4985924;28;7137;-84
2022/07/01 08:05:07;;;;;;;;;;;;;;;;;;4977040;28;8303;-83
2022/07/01 08:07:37;;;;;;;;;;;;;;;;;;4977004;28;7098;-83
2022/07/01 08:10:04;;;;;;;;;;;;;;;;;;4972229;28;7131;-84
2022/07/01 08:12:30;;;;;;;;;;;;;;;;;;4977135;28;6893;-83
2022/07/01 08:14:55;;;;;;;;;;;;;;;;;;4976919;28;8396;-84
2022/07/01 08:17:21;;;;;;;;;;;;;;;;;;4977305;28;7142;-84
2022/07/01 08:19:46;;;;;;;;;;;;;;;;;;4976257;28;8721;-88
2022/07/01 08:22:12;;;;;;;;;;;;;;;;;;4976789;28;7293;-84
2022/07/01 08:24:37;;;;;;;;;;;;;;;;;;4976286;28;8428;-83
2022/07/01 08:27:03;;;;;;;;;;;;;;;;;;4976164;28;8616;-84
2022/07/01 08:29:28;;;;;;;;;;;;;;;;;;4976260;28;8401;-84
2022/07/01 08:31:54;;;;;;;;;;;;;;;;;;4974540;28;8425;-85
2022/07/01 08:34:20;;;;;;;;;;;;;;;;;;4975282;28;8422;-85
2022/07/01 08:36:45;;;;;;;;;;;;;;;;;;4974914;28;8492;-85
2022/07/01 08:39:10;;;;;;;;;;;;;;;;;;4990688;28;7156;-83
2022/07/01 08:41:36;;;;;;;;;;;;;;;;;;4991749;28;8424;-81
2022/07/01 08:44:02;;;;;;;;;;;;;;;;;;4975670;28;8549;-84
2022/07/01 08:46:27;;;;;;;;;;;;;;;;;;4974841;28;7041;-84
2022/07/01 08:48:53;;;;;;;;;;;;;;;;;;4975009;28;8345;-84
2022/07/01 08:51:19;;;;;;;;;;;;;;;;;;4975250;28;8735;-85
2022/07/01 08:53:44;;;;;;;;;;;;;;;;;;4973927;28;7171;-84
2022/07/01 08:58:54;;;;;;;;;;;;;;;;;;4974916;28;7049;-84
2022/07/01 09:01:24;;;;;;;;;;;;;;;;;;4974276;28;7379;-83
2022/07/01 09:03:52;;;;;;;;;;;;;;;;;;4974738;28;8454;-85
2022/07/01 09:06:19;;;;;;;;;;;;;;;;;;4974847;28;9107;-85
2022/07/01 09:08:46;;;;;;;;;;;;;;;;;;4973904;28;8447;-85
2022/07/01 09:11:16;;;;;;;;;;;;;;;;;;4974185;28;7063;-86
2022/07/01 09:13:42;;;;;;;;;;;;;;;;;;4974862;28;8443;-85
2022/07/01 09:16:12;;;;;;;;;;;;;;;;;;4974077;28;7020;-86
2022/07/01 09:18:37;;;;;;;;;;;;;;;;;;4973703;28;8349;-85
2022/07/01 09:21:07;;;;;;;;;;;;;;;;;;4974795;28;8299;-85
2022/07/01 09:23:33;;;;;;;;;;;;;;;;;;4973834;28;9541;-86
2022/07/01 09:25:58;;;;;;;;;;;;;;;;;;4973612;28;7055;-86
2022/07/01 09:28:28;;;;;;;;;;;;;;;;;;4973811;28;8445;-85
2022/07/01 09:30:55;;;;;;;;;;;;;;;;;;4973667;28;8402;-85
2022/07/01 09:33:22;;;;;;;;;;;;;;;;;;4970943;28;8450;-86
2022/07/01 09:35:49;;;;;;;;;;;;;;;;;;4987358;28;7286;-85
2022/07/01 09:38:16;;;;;;;;;;;;;;;;;;4989248;28;9032;-86
2022/07/01 09:40:46;;;;;;;;;;;;;;;;;;4987839;28;8519;-85
2022/07/01 09:43:19;;;;;;;;;;;;;;;;;;4969142;28;8379;-85
2022/07/01 09:45:48;;;;;;;;;;;;;;;;;;4971038;28;7091;-86
2022/07/01 09:48:14;;;;;;;;;;;;;;;;;;4970829;28;7423;-86
2022/07/01 09:50:39;;;;;;;;;;;;;;;;;;4970518;28;8420;-86
2022/07/01 09:53:05;;;;;;;;;;;;;;;;;;4972942;28;7030;-86
2022/07/01 09:55:31;;;;;;;;;;;;;;;;;;4974496;28;8582;-85
2022/07/01 09:57:57;;;;;;;;;;;;;;;;;;4990297;28;8451;-86
2022/07/01 10:00:22;;;;;;;;;;;;;;;;;;4985518;28;9318;-86
2022/07/01 10:02:48;;;;;;;;;;;;;;;;;;4973607;28;8462;-84
2022/07/01 10:05:17;;;;;;;;;;;;;;;;;;4974081;28;8467;-82
2022/07/01 10:07:43;;;;;;;;;;;;;;;;;;4974742;28;8852;-85
2022/07/01 10:10:42;;;;;;;;;;;;;;;;;;4974127;28;7423;-83
2022/07/01 10:13:10;;;;;;;;;;;;;;;;;;4963483;28;7146;-84
2022/07/01 10:15:39;;;;;;;;;;;;;;;;;;4974814;28;8453;-83
2022/07/01 10:18:05;;;;;;;;;;;;;;;;;;4974021;28;8459;-85
2022/07/01 10:20:30;;;;;;;;;;;;;;;;;;4974306;28;8333;-87
2022/07/01 10:23:04;;;;;;;;;;;;;;;;;;4974299;28;7313;-85
2022/07/01 10:25:31;;;;;;;;;;;;;;;;;;4974445;28;8414;-85
2022/07/01 10:28:12;;;;;;;;;;;;;;;;;;4974407;28;8525;-84
2022/07/01 10:30:48;;;;;;;;;;;;;;;;;;4974290;28;7162;-85
2022/07/01 10:33:26;;;;;;;;;;;;;;;;;;4974028;28;8323;-83
2022/07/01 10:35:52;;;;;;;;;;;;;;;;;;4974680;28;8502;-85
2022/07/01 10:38:17;;;;;;;;;;;;;;;;;;4973911;28;8664;-85
2022/07/01 10:40:45;;;;;;;;;;;;;;;;;;4974122;28;7022;-85
2022/07/01 10:43:11;;;;;;;;;;;;;;;;;;4973963;28;7052;-84
2022/07/01 10:45:43;;;;;;;;;;;;;;;;;;4974724;28;8269;-81
2022/07/01 10:48:23;;;;;;;;;;;;;;;;;;4975029;28;7051;-79
2022/07/01 10:50:50;;;;;;;;;;;;;;;;;;4974453;28;8440;-82
2022/07/01 10:53:16;;;;;;;;;;;;;;;;;;4974333;28;7346;-86
2022/07/01 10:55:50;;;;;;;;;;;;;;;;;;4974316;28;8417;-85
2022/07/01 10:58:20;;;;;;;;;;;;;;;;;;4974450;28;8422;-86
2022/07/01 11:00:51;;;;;;;;;;;;;;;;;;4974237;28;7178;-86
2022/07/01 11:03:19;;;;;;;;;;;;;;;;;;4974165;28;8367;-82
2022/07/01 11:05:46;;;;;;;;;;;;;;;;;;4974048;28;7190;-82
2022/07/01 11:08:11;;;;;;;;;;;;;;;;;;4972838;28;7407;-86
2022/07/01 11:10:38;;;;;;;;;;;;;;;;;;4977135;28;8789;-85
2022/07/01 11:13:03;;;;;;;;;;;;;;;;;;4988936;28;8663;-86
2022/07/01 11:15:30;;;;;;;;;;;;;;;;;;4993300;28;6891;-86
2022/07/01 11:17:57;;;;;;;;;;;;;;;;;;4993818;28;8573;-86
2022/07/01 11:20:24;;;;;;;;;;;;;;;;;;4994421;28;7268;-86
2022/07/01 11:22:51;;;;;;;;;;;;;;;;;;4993411;28;8433;-86
2022/07/01 11:25:18;;;;;;;;;;;;;;;;;;4993872;28;8778;-86
2022/07/01 11:27:48;;;;;;;;;;;;;;;;;;4993327;28;8720;-88
2022/07/01 11:30:15;;;;;;;;;;;;;;;;;;4993236;28;8662;-87
2022/07/01 11:32:43;;;;;;;;;;;;;;;;;;4993193;28;8821;-88
2022/07/01 11:40:55;;;;;;;;;;;;;;;;;;4978351;28;6987;-84
2022/07/01 11:43:23;;;;;;;;;;;;;;;;;;4992941;28;8458;-85
2022/07/01 11:45:48;;;;;;;;;;;;;;;;;;4993146;28;7106;-87
2022/07/01 11:48:34;;;;;;;;;;;;;;;;;;4993194;28;8384;-87
2022/07/01 11:51:01;;;;;;;;;;;;;;;;;;4992624;28;7186;-88
2022/07/01 11:53:27;;;;;;;;;;;;;;;;;;4992764;28;7226;-87
2022/07/01 11:55:53;;;;;;;;;;;;;;;;;;4993067;28;8460;-86
2022/07/01 11:58:18;;;;;;;;;;;;;;;;;;4992836;28;8443;-87
2022/07/01 12:00:44;;;;;;;;;;;;;;;;;;4993093;28;7231;-87
2022/07/01 12:03:10;;;;;;;;;;;;;;;;;;4992173;28;8445;-87
2022/07/01 12:05:38;;;;;;;;;;;;;;;;;;4992846;28;8725;-86
2022/07/01 12:08:03;;;;;;;;;;;;;;;;;;4992739;28;8454;-87
2022/07/01 12:10:31;;;;;;;;;;;;;;;;;;4992644;28;8722;-86
2022/07/01 12:12:57;;;;;;;;;;;;;;;;;;4992389;28;8455;-87
2022/07/01 12:15:23;;;;;;;;;;;;;;;;;;4992736;28;8664;-87
2022/07/01 12:17:49;;;;;;;;;;;;;;;;;;4992590;28;7057;-87
2022/07/01 12:20:15;;;;;;;;;;;;;;;;;;4992583;28;7147;-86
2022/07/01 12:22:40;;;;;;;;;;;;;;;;;;4992432;28;7050;-87
2022/07/01 12:25:11;;;;;;;;;;;;;;;;;;4992504;28;8413;-88
2022/07/01 12:27:38;;;;;;;;;;;;;;;;;;4992486;28;6854;-87
2022/07/01 12:30:05;;;;;;;;;;;;;;;;;;4992604;28;7185;-88
2022/07/01 12:32:37;;;;;;;;;;;;;;;;;;4992574;28;8943;-88
2022/07/01 12:35:08;;;;;;;;;;;;;;;;;;4993125;28;6950;-87
2022/07/01 12:37:50;;;;;;;;;;;;;;;;;;4972788;28;7350;-88
2022/07/01 12:40:24;;;;;;;;;;;;;;;;;;4975338;28;7073;-87
2022/07/01 12:42:50;;;;;;;;;;;;;;;;;;4975405;28;8363;-87
2022/07/01 12:45:17;;;;;;;;;;;;;;;;;;4992088;28;8401;-87
2022/07/01 12:47:44;;;;;;;;;;;;;;;;;;4966739;28;8499;-87
2022/07/01 12:50:13;;;;;;;;;;;;;;;;;;4972862;28;8391;-87
2022/07/01 12:52:41;;;;;;;;;;;;;;;;;;4972489;28;7076;-87
2022/07/01 12:55:17;;;;;;;;;;;;;;;;;;4972754;28;8733;-87
2022/07/01 12:57:43;;;;;;;;;;;;;;;;;;4972728;28;8813;-87
2022/07/01 13:00:09;;;;;;;;;;;;;;;;;;4972448;28;8332;-87
2022/07/01 13:02:34;;;;;;;;;;;;;;;;;;4972528;28;8460;-89
2022/07/01 13:05:00;;;;;;;;;;;;;;;;;;4972360;28;8774;-88
2022/07/01 13:07:26;;;;;;;;;;;;;;;;;;4972355;28;8349;-88
2022/07/01 13:09:51;;;;;;;;;;;;;;;;;;4972186;28;6882;-87
2022/07/01 13:12:17;;;;;;;;;;;;;;;;;;4972521;28;8492;-87
2022/07/01 13:14:43;;;;;;;;;;;;;;;;;;4972218;28;8435;-88
2022/07/01 13:17:11;;;;;;;;;;;;;;;;;;4972661;28;9093;-88
2022/07/01 13:19:36;;;;;;;;;;;;;;;;;;4972228;28;8665;-88
2022/07/01 13:22:03;;;;;;;;;;;;;;;;;;4972434;28;8717;-88
2022/07/01 13:24:29;;;;;;;;;;;;;;;;;;4971991;28;8479;-87
2022/07/01 13:26:54;;;;;;;;;;;;;;;;;;4972684;28;8463;-87
2022/07/01 13:29:20;;;;;;;;;;;;;;;;;;4972062;28;7528;-88
2022/07/01 13:31:45;;;;;;;;;;;;;;;;;;4971639;28;7071;-88
2022/07/01 13:34:11;;;;;;;;;;;;;;;;;;4971913;28;8428;-86
2022/07/01 13:36:37;;;;;;;;;;;;;;;;;;4972072;28;8906;-85
2022/07/01 13:39:02;;;;;;;;;;;;;;;;;;4971728;28;8380;-86
2022/07/01 13:41:28;;;;;;;;;;;;;;;;;;4971814;28;7062;-87
2022/07/01 13:43:54;;;;;;;;;;;;;;;;;;4971932;28;7992;-86
2022/07/01 13:46:20;;;;;;;;;;;;;;;;;;4971891;28;7159;-87
2022/07/01 13:48:46;;;;;;;;;;;;;;;;;;4971677;28;8853;-87
2022/07/01 13:51:12;;;;;;;;;;;;;;;;;;4971818;28;8443;-87
2022/07/01 13:53:38;;;;;;;;;;;;;;;;;;4971442;28;7116;-86
2022/07/01 13:56:03;;;;;;;;;;;;;;;;;;4971552;28;7065;-86
2022/07/01 13:58:29;;;;;;;;;;;;;;;;;;4972055;28;8483;-87
2022/07/01 14:00:55;;;;;;;;;;;;;;;;;;4971857;28;8758;-87
2022/07/01 14:03:21;;;;;;;;;;;;;;;;;;4971604;28;8389;-86
2022/07/01 14:05:47;;;;;;;;;;;;;;;;;;4972132;28;8505;-86
2022/07/01 14:08:12;;;;;;;;;;;;;;;;;;4971322;28;7279;-86
2022/07/01 14:10:38;;;;;;;;;;;;;;;;;;4971812;28;7029;-85
2022/07/01 14:13:04;;;;;;;;;;;;;;;;;;4979036;28;8580;-86
2022/07/01 14:15:29;;;;;;;;;;;;;;;;;;4974544;28;8351;-86
2022/07/01 14:17:55;;;;;;;;;;;;;;;;;;4974470;28;7266;-86
2022/07/01 14:20:20;;;;;;;;;;;;;;;;;;4970148;28;8813;-86
2022/07/01 14:22:46;;;;;;;;;;;;;;;;;;4980147;28;8490;-85
2022/07/01 14:25:11;;;;;;;;;;;;;;;;;;4955031;29;8515;-84
2022/07/01 14:27:37;;;;;;;;;;;;;;;;;;4954646;29;7195;-86
2022/07/01 14:30:04;;;;;;;;;;;;;;;;;;4954707;29;8293;-86
2022/07/01 14:32:30;;;;;;;;;;;;;;;;;;4968669;28;8680;-85
2022/07/01 14:34:56;;;;;;;;;;;;;;;;;;5005553;28;7134;-85
2022/07/01 14:37:22;;;;;;;;;;;;;;;;;;4972947;28;9249;-86
2022/07/01 14:39:51;;;;;;;;;;;;;;;;;;4973401;28;8606;-86
2022/07/01 14:42:16;;;;;;;;;;;;;;;;;;4974688;28;8469;-86
2022/07/01 14:44:42;;;;;;;;;;;;;;;;;;4977730;28;6845;-85
2022/07/01 14:47:07;;;;;;;;;;;;;;;;;;4978271;28;8911;-86
2022/07/01 14:49:35;;;;;;;;;;;;;;;;;;4978152;28;8435;-86
2022/07/01 14:52:02;;;;;;;;;;;;;;;;;;4978389;28;8918;-85
2022/07/01 14:54:28;;;;;;;;;;;;;;;;;;4978177;28;8863;-86
2022/07/01 14:56:54;;;;;;;;;;;;;;;;;;4978268;28;8439;-86
2022/07/01 14:59:19;;;;;;;;;;;;;;;;;;4977402;28;8412;-86
2022/07/01 15:01:45;;;;;;;;;;;;;;;;;;4977722;28;8603;-87
2022/07/01 15:04:10;;;;;;;;;;;;;;;;;;4977356;28;7143;-86
2022/07/01 15:06:36;;;;;;;;;;;;;;;;;;4977618;28;8456;-86
2022/07/01 15:09:05;;;;;;;;;;;;;;;;;;4977687;28;8741;-86
2022/07/01 15:11:32;;;;;;;;;;;;;;;;;;4977419;28;7358;-86
2022/07/01 15:13:58;;;;;;;;;;;;;;;;;;4977609;28;8650;-86
2022/07/01 15:16:25;;;;;;;;;;;;;;;;;;4977011;28;8633;-86
2022/07/01 15:18:52;;;;;;;;;;;;;;;;;;4977130;28;8903;-85
2022/07/01 15:21:19;;;;;;;;;;;;;;;;;;4976864;28;8917;-85
2022/07/01 15:23:45;;;;;;;;;;;;;;;;;;4977275;28;7216;-86
2022/07/01 15:26:10;;;;;;;;;;;;;;;;;;4976665;28;8680;-86
2022/07/01 15:28:36;;;;;;;;;;;;;;;;;;4977670;28;7595;-89
2022/07/01 15:31:02;;;;;;;;;;;;;;;;;;4976940;28;8782;-86
2022/07/01 15:33:29;;;;;;;;;;;;;;;;;;4976841;28;8533;-86
2022/07/01 15:35:55;;;;;;;;;;;;;;;;;;4977199;28;8615;-85
2022/07/01 15:38:20;;;;;;;;;;;;;;;;;;4976987;28;8387;-86
2022/07/01 15:40:46;;;;;;;;;;;;;;;;;;4976211;28;8818;-85
2022/07/01 15:43:13;;;;;;;;;;;;;;;;;;4976668;28;7043;-86
2022/07/01 15:45:39;;;;;;;;;;;;;;;;;;4976247;28;8452;-85
2022/07/01 15:48:10;;;;;;;;;;;;;;;;;;4976076;28;9304;-86
2022/07/01 15:50:38;;;;;;;;;;;;;;;;;;4976883;28;8480;-85
2022/07/01 15:53:04;;;;;;;;;;;;;;;;;;4976247;28;8493;-85
2022/07/01 15:55:30;;;;;;;;;;;;;;;;;;4977307;28;7157;-84
2022/07/01 15:57:56;;;;;;;;;;;;;;;;;;4976843;28;8513;-85
2022/07/01 16:00:23;;;;;;;;;;;;;;;;;;4976229;28;7459;-85
2022/07/01 16:02:49;;;;;;;;;;;;;;;;;;4976573;28;8531;-85
2022/07/01 16:05:14;;;;;;;;;;;;;;;;;;4976642;28;8471;-86
2022/07/01 16:07:43;;;;;;;;;;;;;;;;;;4976859;28;8550;-86
2022/07/01 16:10:10;;;;;;;;;;;;;;;;;;4976288;28;7068;-86
2022/07/01 16:12:42;;;;;;;;;;;;;;;;;;4976365;28;7209;-85
2022/07/01 16:15:09;;;;;;;;;;;;;;;;;;4976269;28;8928;-86
2022/07/01 16:17:40;;;;;;;;;;;;;;;;;;4975988;28;8482;-85
2022/07/01 16:20:07;;;;;;;;;;;;;;;;;;4976087;28;8371;-85
2022/07/01 16:22:37;;;;;;;;;;;;;;;;;;4975872;28;8679;-85
2022/07/01 16:25:04;;;;;;;;;;;;;;;;;;4976119;28;8557;-85
2022/07/01 16:27:35;;;;;;;;;;;;;;;;;;4976139;28;8855;-84
2022/07/01 16:30:02;;;;;;;;;;;;;;;;;;4978469;28;7059;-86
2022/07/01 16:32:31;;;;;;;;;;;;;;;;;;4976912;28;7044;-86
2022/07/01 16:34:58;;;;;;;;;;;;;;;;;;4975951;28;6902;-85
2022/07/01 16:37:27;;;;;;;;;;;;;;;;;;4975418;28;8555;-85
2022/07/01 16:39:55;;;;;;;;;;;;;;;;;;4975709;28;8921;-84
2022/07/01 16:42:23;;;;;;;;;;;;;;;;;;4975685;28;7262;-84
2022/07/01 16:44:55;;;;;;;;;;;;;;;;;;4975679;28;7283;-83
2022/07/01 16:47:26;;;;;;;;;;;;;;;;;;4975800;28;8588;-85
2022/07/01 16:49:55;;;;;;;;;;;;;;;;;;4976163;28;8425;-83
2022/07/01 16:52:21;;;;;;;;;;;;;;;;;;4975214;28;8407;-84
2022/07/01 16:55:06;;;;;;;;;;;;;;;;;;4975203;28;8673;-84
2022/07/01 16:57:35;;;;;;;;;;;;;;;;;;4975464;28;8441;-84
2022/07/01 17:00:02;;;;;;;;;;;;;;;;;;4975934;28;7189;-85
2022/07/01 17:02:28;;;;;;;;;;;;;;;;;;4975613;28;8543;-84
2022/07/01 17:04:55;;;;;;;;;;;;;;;;;;4974832;28;8539;-85
2022/07/01 17:07:20;;;;;;;;;;;;;;;;;;4975752;28;7142;-84
2022/07/01 17:09:46;;;;;;;;;;;;;;;;;;4975219;28;8795;-84
2022/07/01 17:12:13;;;;;;;;;;;;;;;;;;4975308;28;7090;-84
2022/07/01 17:14:43;;;;;;;;;;;;;;;;;;4975581;28;7078;-84